sensor_id;sensor_type;location;lat;lon;timestamp;temperature;humidity
41168;DHT22;26906;45.658;9.272;2022-08-03T04:33:37;25.70;99.90
41168;DHT22;26906;45.658;9.272;2022-08-03T04:36:06;25.60;99.90
41168;DHT22;26906;45.658;9.272;2022-08-03T04:38:38;25.60;99.90
41168;DHT22;26906;45.658;9.272;2022-08-03T04:41:06;25.60;99.90
41168;DHT22;26906;45.658;9.272;2022-08-03T04:43:33;25.70;99.90
41168;DHT22;26906;45.658;9.272;2022-08-03T04:46:00;25.70;99.90
41168;DHT22;26906;45.658;9.272;2022-08-03T04:48:27;25.70;99.90
41168;DHT22;26906;45.658;9.272;2022-08-03T04:50:53;25.80;99.90
41168;DHT22;26906;45.658;9.272;2022-08-03T04:53:19;25.90;99.90
41168;DHT22;26906;45.658;9.272;2022-08-03T04:55:45;25.90;99.90
41168;DHT22;26906;45.658;9.272;2022-08-03T04:58:11;25.90;99.90
41168;DHT22;26906;45.658;9.272;2022-08-03T05:00:37;25.90;99.90
41168;DHT22;26906;45.658;9.272;2022-08-03T05:03:03;26.00;99.90
41168;DHT22;26906;45.658;9.272;2022-08-03T05:05:28;26.10;99.90
41168;DHT22;26906;45.658;9.272;2022-08-03T05:07:57;26.30;99.90
41168;DHT22;26906;45.658;9.272;2022-08-03T05:10:22;26.30;99.90
41168;DHT22;26906;45.658;9.272;2022-08-03T05:12:48;26.40;99.90
41168;DHT22;26906;45.658;9.272;2022-08-03T05:15:16;26.40;99.90
41168;DHT22;26906;45.658;9.272;2022-08-03T05:17:42;26.60;99.90
41168;DHT22;26906;45.658;9.272;2022-08-03T05:20:08;26.70;99.90
41168;DHT22;26906;45.658;9.272;2022-08-03T05:22:34;26.90;99.90
41168;DHT22;26906;45.658;9.272;2022-08-03T05:25:00;27.20;99.90
41168;DHT22;26906;45.658;9.272;2022-08-03T05:27:26;27.30;99.90
41168;DHT22;26906;45.658;9.272;2022-08-03T05:29:55;27.50;99.90
41168;DHT22;26906;45.658;9.272;2022-08-03T05:32:21;27.70;99.90
41168;DHT22;26906;45.658;9.272;2022-08-03T05:34:46;28.00;99.90
41168;DHT22;26906;45.658;9.272;2022-08-03T05:37:12;28.20;99.90
41168;DHT22;26906;45.658;9.272;2022-08-03T05:39:38;28.40;99.90
41168;DHT22;26906;45.658;9.272;2022-08-03T05:42:04;28.60;99.90
41168;DHT22;26906;45.658;9.272;2022-08-03T05:44:29;28.80;99.90
41168;DHT22;26906;45.658;9.272;2022-08-03T05:46:56;29.00;99.90
41168;DHT22;26906;45.658;9.272;2022-08-03T05:49:22;29.20;99.90
41168;DHT22;26906;45.658;9.272;2022-08-03T05:51:48;29.30;99.90
41168;DHT22;26906;45.658;9.272;2022-08-03T05:54:13;29.30;99.90
41168;DHT22;26906;45.658;9.272;2022-08-03T05:56:39;29.40;99.90
41168;DHT22;26906;45.658;9.272;2022-08-03T05:59:08;29.70;99.90
41168;DHT22;26906;45.658;9.272;2022-08-03T06:01:33;29.90;99.90
41168;DHT22;26906;45.658;9.272;2022-08-03T06:03:59;30.20;99.90
41168;DHT22;26906;45.658;9.272;2022-08-03T06:06:28;30.50;99.90
41168;DHT22;26906;45.658;9.272;2022-08-03T06:08:54;30.70;99.90
41168;DHT22;26906;45.658;9.272;2022-08-03T06:11:19;30.90;99.90
41168;DHT22;26906;45.658;9.272;2022-08-03T06:13:45;31.20;99.90
41168;DHT22;26906;45.658;9.272;2022-08-03T06:16:11;31.20;99.90
41168;DHT22;26906;45.658;9.272;2022-08-03T06:18:37;31.40;99.90
41168;DHT22;26906;45.658;9.272;2022-08-03T06:21:03;31.50;99.90
41168;DHT22;26906;45.658;9.272;2022-08-03T06:23:29;31.40;99.90
41168;DHT22;26906;45.658;9.272;2022-08-03T06:25:55;31.50;99.90
41168;DHT22;26906;45.658;9.272;2022-08-03T06:28:20;31.50;99.90
41168;DHT22;26906;45.658;9.272;2022-08-03T06:30:46;31.70;99.90
41168;DHT22;26906;45.658;9.272;2022-08-03T06:33:12;31.90;99.90
41168;DHT22;26906;45.658;9.272;2022-08-03T06:35:38;31.90;99.90
41168;DHT22;26906;45.658;9.272;2022-08-03T06:38:03;31.90;99.90
41168;DHT22;26906;45.658;9.272;2022-08-03T06:40:34;31.90;99.90
41168;DHT22;26906;45.658;9.272;2022-08-03T06:43:04;32.00;99.90
41168;DHT22;26906;45.658;9.272;2022-08-03T06:45:31;32.10;99.90
41168;DHT22;26906;45.658;9.272;2022-08-03T06:48:08;32.30;99.90
41168;DHT22;26906;45.658;9.272;2022-08-03T06:50:35;32.40;99.90
41168;DHT22;26906;45.658;9.272;2022-08-03T06:53:03;32.70;99.90
41168;DHT22;26906;45.658;9.272;2022-08-03T06:55:29;32.90;99.90
41168;DHT22;26906;45.658;9.272;2022-08-03T06:57:54;33.10;99.90
41168;DHT22;26906;45.658;9.272;2022-08-03T07:00:20;33.10;99.90
41168;DHT22;26906;45.658;9.272;2022-08-03T07:02:47;33.10;99.90
41168;DHT22;26906;45.658;9.272;2022-08-03T07:05:13;33.20;99.90
41168;DHT22;26906;45.658;9.272;2022-08-03T07:07:39;33.30;98.30
41168;DHT22;26906;45.658;9.272;2022-08-03T07:10:06;33.40;98.50
41168;DHT22;26906;45.658;9.272;2022-08-03T07:12:32;33.50;98.10
41168;DHT22;26906;45.658;9.272;2022-08-03T07:14:59;33.60;98.10
41168;DHT22;26906;45.658;9.272;2022-08-03T07:17:26;33.70;97.80
41168;DHT22;26906;45.658;9.272;2022-08-03T07:19:52;33.50;97.60
41168;DHT22;26906;45.658;9.272;2022-08-03T07:22:17;33.50;97.80
41168;DHT22;26906;45.658;9.272;2022-08-03T07:24:43;33.40;97.50
41168;DHT22;26906;45.658;9.272;2022-08-03T07:27:10;33.50;97.70
41168;DHT22;26906;45.658;9.272;2022-08-03T07:29:36;33.70;97.20
41168;DHT22;26906;45.658;9.272;2022-08-03T07:32:05;33.90;96.90
41168;DHT22;26906;45.658;9.272;2022-08-03T07:34:31;33.80;96.60
41168;DHT22;26906;45.658;9.272;2022-08-03T07:36:57;33.80;96.70
41168;DHT22;26906;45.658;9.272;2022-08-03T07:39:22;33.80;96.50
41168;DHT22;26906;45.658;9.272;2022-08-03T07:41:48;34.00;96.90
41168;DHT22;26906;45.658;9.272;2022-08-03T07:44:18;34.00;96.10
41168;DHT22;26906;45.658;9.272;2022-08-03T07:46:44;34.30;95.80
41168;DHT22;26906;45.658;9.272;2022-08-03T07:49:09;34.30;95.30
41168;DHT22;26906;45.658;9.272;2022-08-03T07:51:35;34.70;95.10
41168;DHT22;26906;45.658;9.272;2022-08-03T07:54:01;34.60;94.70
41168;DHT22;26906;45.658;9.272;2022-08-03T07:56:27;34.60;94.40
41168;DHT22;26906;45.658;9.272;2022-08-03T07:58:53;34.60;94.60
41168;DHT22;26906;45.658;9.272;2022-08-03T08:01:19;34.70;94.40
41168;DHT22;26906;45.658;9.272;2022-08-03T08:03:46;34.80;94.30
41168;DHT22;26906;45.658;9.272;2022-08-03T08:06:14;34.90;94.60
41168;DHT22;26906;45.658;9.272;2022-08-03T08:08:41;35.10;94.10
41168;DHT22;26906;45.658;9.272;2022-08-03T08:11:07;35.00;93.80
41168;DHT22;26906;45.658;9.272;2022-08-03T08:13:33;35.10;93.70
41168;DHT22;26906;45.658;9.272;2022-08-03T08:15:59;34.90;93.40
41168;DHT22;26906;45.658;9.272;2022-08-03T08:18:25;34.90;93.10
41168;DHT22;26906;45.658;9.272;2022-08-03T08:20:54;35.00;93.00
41168;DHT22;26906;45.658;9.272;2022-08-03T08:23:20;35.20;92.80
41168;DHT22;26906;45.658;9.272;2022-08-03T08:25:50;35.10;92.70
41168;DHT22;26906;45.658;9.272;2022-08-03T08:28:17;35.10;92.80
41168;DHT22;26906;45.658;9.272;2022-08-03T08:30:43;35.00;92.90
41168;DHT22;26906;45.658;9.272;2022-08-03T08:33:09;35.10;92.40
41168;DHT22;26906;45.658;9.272;2022-08-03T08:35:38;35.10;92.40
41168;DHT22;26906;45.658;9.272;2022-08-03T08:38:03;35.30;92.50
41168;DHT22;26906;45.658;9.272;2022-08-03T08:40:29;34.80;92.20
41168;DHT22;26906;45.658;9.272;2022-08-03T08:42:55;34.80;92.20
41168;DHT22;26906;45.658;9.272;2022-08-03T08:45:21;34.70;92.30
41168;DHT22;26906;45.658;9.272;2022-08-03T08:47:48;34.80;92.10
41168;DHT22;26906;45.658;9.272;2022-08-03T08:50:20;34.80;92.20
41168;DHT22;26906;45.658;9.272;2022-08-03T08:52:48;35.00;92.10
41168;DHT22;26906;45.658;9.272;2022-08-03T08:55:19;35.50;92.40
41168;DHT22;26906;45.658;9.272;2022-08-03T08:58:04;35.80;91.70
41168;DHT22;26906;45.658;9.272;2022-08-03T09:00:30;36.10;91.30
41168;DHT22;26906;45.658;9.272;2022-08-03T09:02:59;36.20;90.80
41168;DHT22;26906;45.658;9.272;2022-08-03T09:05:25;36.20;90.50
41168;DHT22;26906;45.658;9.272;2022-08-03T09:07:51;36.20;90.90
41168;DHT22;26906;45.658;9.272;2022-08-03T09:10:18;36.20;90.70
41168;DHT22;26906;45.658;9.272;2022-08-03T09:12:48;36.40;90.50
41168;DHT22;26906;45.658;9.272;2022-08-03T09:17:44;35.80;90.80
41168;DHT22;26906;45.658;9.272;2022-08-03T09:20:10;35.80;90.10
41168;DHT22;26906;45.658;9.272;2022-08-03T09:22:57;35.70;89.20
41168;DHT22;26906;45.658;9.272;2022-08-03T09:25:31;35.80;90.10
41168;DHT22;26906;45.658;9.272;2022-08-03T09:28:23;36.10;90.00
41168;DHT22;26906;45.658;9.272;2022-08-03T09:30:59;36.30;89.80
41168;DHT22;26906;45.658;9.272;2022-08-03T09:33:25;36.30;89.30
41168;DHT22;26906;45.658;9.272;2022-08-03T09:35:53;36.30;88.40
41168;DHT22;26906;45.658;9.272;2022-08-03T09:38:24;35.90;88.40
41168;DHT22;26906;45.658;9.272;2022-08-03T09:40:54;35.80;88.50
41168;DHT22;26906;45.658;9.272;2022-08-03T09:43:20;35.90;89.50
41168;DHT22;26906;45.658;9.272;2022-08-03T09:45:46;36.10;89.30
41168;DHT22;26906;45.658;9.272;2022-08-03T09:48:26;36.40;88.60
41168;DHT22;26906;45.658;9.272;2022-08-03T09:51:00;36.70;89.00
41168;DHT22;26906;45.658;9.272;2022-08-03T09:53:28;36.70;87.00
41168;DHT22;26906;45.658;9.272;2022-08-03T09:55:57;36.50;87.60
41168;DHT22;26906;45.658;9.272;2022-08-03T09:58:24;36.70;87.30
41168;DHT22;26906;45.658;9.272;2022-08-03T10:01:03;36.90;88.10
41168;DHT22;26906;45.658;9.272;2022-08-03T10:03:36;37.00;86.60
41168;DHT22;26906;45.658;9.272;2022-08-03T10:06:17;37.10;87.00
41168;DHT22;26906;45.658;9.272;2022-08-03T10:09:13;37.30;87.10
41168;DHT22;26906;45.658;9.272;2022-08-03T10:11:40;37.40;86.40
41168;DHT22;26906;45.658;9.272;2022-08-03T10:14:08;37.30;86.00
41168;DHT22;26906;45.658;9.272;2022-08-03T10:16:36;36.90;86.40
41168;DHT22;26906;45.658;9.272;2022-08-03T10:19:04;36.60;85.80
41168;DHT22;26906;45.658;9.272;2022-08-03T10:21:33;36.50;86.50
41168;DHT22;26906;45.658;9.272;2022-08-03T10:24:02;36.80;87.70
41168;DHT22;26906;45.658;9.272;2022-08-03T10:26:34;36.90;86.80
41168;DHT22;26906;45.658;9.272;2022-08-03T10:29:03;36.80;87.50
41168;DHT22;26906;45.658;9.272;2022-08-03T10:31:39;36.90;86.90
41168;DHT22;26906;45.658;9.272;2022-08-03T10:34:10;36.90;86.40
41168;DHT22;26906;45.658;9.272;2022-08-03T10:36:37;36.90;86.40
41168;DHT22;26906;45.658;9.272;2022-08-03T10:39:05;37.10;85.70
41168;DHT22;26906;45.658;9.272;2022-08-03T10:41:36;36.90;84.60
41168;DHT22;26906;45.658;9.272;2022-08-03T10:44:05;36.90;85.00
41168;DHT22;26906;45.658;9.272;2022-08-03T10:46:34;37.10;85.70
41168;DHT22;26906;45.658;9.272;2022-08-03T10:49:01;37.30;85.30
41168;DHT22;26906;45.658;9.272;2022-08-03T10:51:28;37.50;85.20
41168;DHT22;26906;45.658;9.272;2022-08-03T10:53:57;37.50;85.10
41168;DHT22;26906;45.658;9.272;2022-08-03T10:59:21;37.30;85.20
41168;DHT22;26906;45.658;9.272;2022-08-03T11:02:05;37.60;85.10
41168;DHT22;26906;45.658;9.272;2022-08-03T11:04:34;37.70;84.40
41168;DHT22;26906;45.658;9.272;2022-08-03T11:09:45;37.60;83.70
41168;DHT22;26906;45.658;9.272;2022-08-03T11:12:35;37.40;84.30
41168;DHT22;26906;45.658;9.272;2022-08-03T11:15:06;37.80;84.80
41168;DHT22;26906;45.658;9.272;2022-08-03T11:17:34;37.70;84.40
41168;DHT22;26906;45.658;9.272;2022-08-03T11:20:00;37.30;83.80
41168;DHT22;26906;45.658;9.272;2022-08-03T11:22:47;37.20;83.90
41168;DHT22;26906;45.658;9.272;2022-08-03T11:25:12;37.20;83.90
41168;DHT22;26906;45.658;9.272;2022-08-03T11:27:40;36.90;83.00
41168;DHT22;26906;45.658;9.272;2022-08-03T11:30:21;36.90;84.20
41168;DHT22;26906;45.658;9.272;2022-08-03T11:32:52;37.20;83.80
41168;DHT22;26906;45.658;9.272;2022-08-03T11:40:37;37.30;83.00
41168;DHT22;26906;45.658;9.272;2022-08-03T11:43:05;36.40;83.80
41168;DHT22;26906;45.658;9.272;2022-08-03T11:45:32;36.00;84.80
41168;DHT22;26906;45.658;9.272;2022-08-03T11:48:15;36.70;84.50
41168;DHT22;26906;45.658;9.272;2022-08-03T11:50:42;36.30;83.80
41168;DHT22;26906;45.658;9.272;2022-08-03T11:53:17;36.40;84.20
41168;DHT22;26906;45.658;9.272;2022-08-03T11:55:44;36.30;83.60
41168;DHT22;26906;45.658;9.272;2022-08-03T11:58:20;36.50;83.70
41168;DHT22;26906;45.658;9.272;2022-08-03T12:00:47;36.10;84.00
41168;DHT22;26906;45.658;9.272;2022-08-03T12:03:15;36.70;83.50
41168;DHT22;26906;45.658;9.272;2022-08-03T12:05:47;37.20;83.80
41168;DHT22;26906;45.658;9.272;2022-08-03T12:08:16;37.60;83.00
41168;DHT22;26906;45.658;9.272;2022-08-03T12:10:49;37.80;83.30
41168;DHT22;26906;45.658;9.272;2022-08-03T12:13:16;38.10;82.50
41168;DHT22;26906;45.658;9.272;2022-08-03T12:15:53;38.40;82.90
41168;DHT22;26906;45.658;9.272;2022-08-03T12:18:20;38.80;81.80
41168;DHT22;26906;45.658;9.272;2022-08-03T12:20:51;38.60;81.20
41168;DHT22;26906;45.658;9.272;2022-08-03T12:23:18;38.70;81.00
41168;DHT22;26906;45.658;9.272;2022-08-03T12:25:45;39.00;80.60
41168;DHT22;26906;45.658;9.272;2022-08-03T12:28:20;39.20;81.00
41168;DHT22;26906;45.658;9.272;2022-08-03T12:30:51;39.30;80.60
41168;DHT22;26906;45.658;9.272;2022-08-03T12:33:23;39.30;80.00
41168;DHT22;26906;45.658;9.272;2022-08-03T12:36:09;39.40;79.90
41168;DHT22;26906;45.658;9.272;2022-08-03T12:38:36;39.40;79.70
41168;DHT22;26906;45.658;9.272;2022-08-03T12:41:08;39.80;80.00
41168;DHT22;26906;45.658;9.272;2022-08-03T12:43:49;39.60;78.40
41168;DHT22;26906;45.658;9.272;2022-08-03T12:46:16;39.60;79.10
41168;DHT22;26906;45.658;9.272;2022-08-03T12:49:07;39.70;78.90
41168;DHT22;26906;45.658;9.272;2022-08-03T12:54:21;38.30;79.20
41168;DHT22;26906;45.658;9.272;2022-08-03T12:59:33;37.40;80.00
41168;DHT22;26906;45.658;9.272;2022-08-03T13:01:59;37.60;80.50
41168;DHT22;26906;45.658;9.272;2022-08-03T13:04:34;37.90;79.40
41168;DHT22;26906;45.658;9.272;2022-08-03T13:07:08;37.80;78.50
41168;DHT22;26906;45.658;9.272;2022-08-03T13:12:14;38.40;78.60
41168;DHT22;26906;45.658;9.272;2022-08-03T13:14:42;38.50;79.10
41168;DHT22;26906;45.658;9.272;2022-08-03T13:17:08;38.90;79.00
41168;DHT22;26906;45.658;9.272;2022-08-03T13:19:35;38.90;78.40
41168;DHT22;26906;45.658;9.272;2022-08-03T13:22:18;38.90;77.80
41168;DHT22;26906;45.658;9.272;2022-08-03T13:24:46;38.90;77.50
41168;DHT22;26906;45.658;9.272;2022-08-03T13:27:12;39.10;78.10
41168;DHT22;26906;45.658;9.272;2022-08-03T13:29:38;39.30;77.90
41168;DHT22;26906;45.658;9.272;2022-08-03T13:32:05;39.50;77.60
41168;DHT22;26906;45.658;9.272;2022-08-03T13:34:31;39.80;77.40
41168;DHT22;26906;45.658;9.272;2022-08-03T13:36:57;39.70;77.30
41168;DHT22;26906;45.658;9.272;2022-08-03T13:39:23;39.70;77.30
41168;DHT22;26906;45.658;9.272;2022-08-03T13:41:49;39.60;77.30
41168;DHT22;26906;45.658;9.272;2022-08-03T13:44:15;39.80;77.60
41168;DHT22;26906;45.658;9.272;2022-08-03T13:46:41;40.00;76.30
41168;DHT22;26906;45.658;9.272;2022-08-03T13:49:07;39.90;76.30
41168;DHT22;26906;45.658;9.272;2022-08-03T13:51:33;39.80;77.10
41168;DHT22;26906;45.658;9.272;2022-08-03T13:53:59;39.90;76.40
41168;DHT22;26906;45.658;9.272;2022-08-03T13:56:25;40.00;75.60
41168;DHT22;26906;45.658;9.272;2022-08-03T13:58:51;39.40;75.10
41168;DHT22;26906;45.658;9.272;2022-08-03T14:01:17;38.70;76.40
41168;DHT22;26906;45.658;9.272;2022-08-03T14:03:43;38.70;77.00
41168;DHT22;26906;45.658;9.272;2022-08-03T14:06:08;39.00;77.10
41168;DHT22;26906;45.658;9.272;2022-08-03T14:08:34;38.90;76.80
41168;DHT22;26906;45.658;9.272;2022-08-03T14:11:00;39.00;76.40
41168;DHT22;26906;45.658;9.272;2022-08-03T14:13:26;38.80;76.30
41168;DHT22;26906;45.658;9.272;2022-08-03T14:15:51;38.90;76.50
41168;DHT22;26906;45.658;9.272;2022-08-03T14:18:21;39.10;77.30
41168;DHT22;26906;45.658;9.272;2022-08-03T14:20:47;39.40;77.00
41168;DHT22;26906;45.658;9.272;2022-08-03T14:23:13;39.20;76.70
41168;DHT22;26906;45.658;9.272;2022-08-03T14:25:39;39.00;76.10
41168;DHT22;26906;45.658;9.272;2022-08-03T14:28:06;38.90;76.30
41168;DHT22;26906;45.658;9.272;2022-08-03T14:30:33;38.90;76.20
41168;DHT22;26906;45.658;9.272;2022-08-03T14:32:58;38.70;76.90
41168;DHT22;26906;45.658;9.272;2022-08-03T14:35:24;38.60;77.80
41168;DHT22;26906;45.658;9.272;2022-08-03T14:37:50;38.60;77.00
41168;DHT22;26906;45.658;9.272;2022-08-03T14:40:17;38.80;76.80
41168;DHT22;26906;45.658;9.272;2022-08-03T14:42:43;38.80;76.90
41168;DHT22;26906;45.658;9.272;2022-08-03T14:45:09;39.00;76.90
41168;DHT22;26906;45.658;9.272;2022-08-03T14:47:35;38.70;76.40
41168;DHT22;26906;45.658;9.272;2022-08-03T14:50:00;38.70;76.50
41168;DHT22;26906;45.658;9.272;2022-08-03T14:52:29;38.50;76.80
41168;DHT22;26906;45.658;9.272;2022-08-03T14:54:55;38.70;77.00
41168;DHT22;26906;45.658;9.272;2022-08-03T14:57:21;38.80;77.10
41168;DHT22;26906;45.658;9.272;2022-08-03T14:59:47;39.00;76.70
41168;DHT22;26906;45.658;9.272;2022-08-03T15:02:12;39.10;76.50
41168;DHT22;26906;45.658;9.272;2022-08-03T15:04:38;39.10;76.30
41168;DHT22;26906;45.658;9.272;2022-08-03T15:07:04;38.90;75.40
41168;DHT22;26906;45.658;9.272;2022-08-03T15:09:30;38.80;76.30
41168;DHT22;26906;45.658;9.272;2022-08-03T15:11:56;38.90;75.60
41168;DHT22;26906;45.658;9.272;2022-08-03T15:14:21;39.10;75.70
41168;DHT22;26906;45.658;9.272;2022-08-03T15:16:47;38.90;75.60
41168;DHT22;26906;45.658;9.272;2022-08-03T15:19:13;38.60;75.70
41168;DHT22;26906;45.658;9.272;2022-08-03T15:21:38;38.70;76.80
41168;DHT22;26906;45.658;9.272;2022-08-03T15:24:04;38.80;75.40
41168;DHT22;26906;45.658;9.272;2022-08-03T15:26:30;38.80;74.90
41168;DHT22;26906;45.658;9.272;2022-08-03T15:28:56;38.70;76.10
41168;DHT22;26906;45.658;9.272;2022-08-03T15:31:23;38.80;75.50
41168;DHT22;26906;45.658;9.272;2022-08-03T15:33:49;38.90;74.80
41168;DHT22;26906;45.658;9.272;2022-08-03T15:36:18;39.00;75.30
41168;DHT22;26906;45.658;9.272;2022-08-03T15:38:52;39.00;75.70
41168;DHT22;26906;45.658;9.272;2022-08-03T15:41:18;39.00;74.90
41168;DHT22;26906;45.658;9.272;2022-08-03T15:43:44;39.00;75.30
41168;DHT22;26906;45.658;9.272;2022-08-03T15:46:12;38.70;74.30
41168;DHT22;26906;45.658;9.272;2022-08-03T15:48:41;38.70;75.10
41168;DHT22;26906;45.658;9.272;2022-08-03T15:51:08;38.20;76.00
41168;DHT22;26906;45.658;9.272;2022-08-03T15:53:34;38.30;76.70
41168;DHT22;26906;45.658;9.272;2022-08-03T15:56:01;38.10;76.30
41168;DHT22;26906;45.658;9.272;2022-08-03T15:58:29;38.10;76.90
41168;DHT22;26906;45.658;9.272;2022-08-03T16:00:57;38.00;77.10
41168;DHT22;26906;45.658;9.272;2022-08-03T16:03:29;38.00;77.40
41168;DHT22;26906;45.658;9.272;2022-08-03T16:06:07;38.20;77.50
41168;DHT22;26906;45.658;9.272;2022-08-03T16:08:33;38.30;77.60
41168;DHT22;26906;45.658;9.272;2022-08-03T16:11:02;38.40;77.70
41168;DHT22;26906;45.658;9.272;2022-08-03T16:13:28;38.10;77.00
41168;DHT22;26906;45.658;9.272;2022-08-03T16:15:54;37.90;77.60
41168;DHT22;26906;45.658;9.272;2022-08-03T16:18:20;37.70;78.60
41168;DHT22;26906;45.658;9.272;2022-08-03T16:20:46;37.50;78.20
41168;DHT22;26906;45.658;9.272;2022-08-03T16:23:14;37.10;78.80
41168;DHT22;26906;45.658;9.272;2022-08-03T16:25:41;37.10;78.30
41168;DHT22;26906;45.658;9.272;2022-08-03T16:28:09;37.10;79.10
41168;DHT22;26906;45.658;9.272;2022-08-03T16:30:35;37.20;79.00
41168;DHT22;26906;45.658;9.272;2022-08-03T16:33:01;37.30;79.00
41168;DHT22;26906;45.658;9.272;2022-08-03T16:35:27;37.40;78.90
41168;DHT22;26906;45.658;9.272;2022-08-03T16:37:53;37.10;78.60
41168;DHT22;26906;45.658;9.272;2022-08-03T16:40:18;37.10;78.90
41168;DHT22;26906;45.658;9.272;2022-08-03T16:42:45;36.70;78.70
41168;DHT22;26906;45.658;9.272;2022-08-03T16:45:11;36.70;79.30
41168;DHT22;26906;45.658;9.272;2022-08-03T16:47:37;36.90;79.90
41168;DHT22;26906;45.658;9.272;2022-08-03T16:50:06;36.70;79.10
41168;DHT22;26906;45.658;9.272;2022-08-03T16:52:34;36.80;79.80
41168;DHT22;26906;45.658;9.272;2022-08-03T16:55:01;37.00;80.40
41168;DHT22;26906;45.658;9.272;2022-08-03T16:57:27;37.00;80.10
41168;DHT22;26906;45.658;9.272;2022-08-03T16:59:53;36.90;79.90
41168;DHT22;26906;45.658;9.272;2022-08-03T17:02:23;36.80;80.20
41168;DHT22;26906;45.658;9.272;2022-08-03T17:04:51;36.60;80.20
41168;DHT22;26906;45.658;9.272;2022-08-03T17:07:17;36.60;79.80
41168;DHT22;26906;45.658;9.272;2022-08-03T17:09:44;36.60;80.00
41168;DHT22;26906;45.658;9.272;2022-08-03T17:12:11;36.50;80.80
41168;DHT22;26906;45.658;9.272;2022-08-03T17:14:38;36.50;81.00
41168;DHT22;26906;45.658;9.272;2022-08-03T17:17:12;36.40;79.90
41168;DHT22;26906;45.658;9.272;2022-08-03T17:19:40;36.20;81.20
41168;DHT22;26906;45.658;9.272;2022-08-03T17:22:12;36.20;80.60
41168;DHT22;26906;45.658;9.272;2022-08-03T17:24:44;36.30;80.80
41168;DHT22;26906;45.658;9.272;2022-08-03T17:27:15;36.00;80.60
41168;DHT22;26906;45.658;9.272;2022-08-03T17:29:45;35.80;80.70
41168;DHT22;26906;45.658;9.272;2022-08-03T17:32:14;35.60;80.70
41168;DHT22;26906;45.658;9.272;2022-08-03T17:34:45;35.40;81.50
41168;DHT22;26906;45.658;9.272;2022-08-03T17:37:12;35.40;81.60
41168;DHT22;26906;45.658;9.272;2022-08-03T17:39:42;35.30;81.80
41168;DHT22;26906;45.658;9.272;2022-08-03T17:42:09;35.10;81.80
41168;DHT22;26906;45.658;9.272;2022-08-03T17:44:35;35.10;82.40
41168;DHT22;26906;45.658;9.272;2022-08-03T17:47:01;35.00;82.10
41168;DHT22;26906;45.658;9.272;2022-08-03T17:49:27;34.90;82.10
41168;DHT22;26906;45.658;9.272;2022-08-03T17:52:01;34.80;82.20
41168;DHT22;26906;45.658;9.272;2022-08-03T17:57:18;34.40;82.40
41168;DHT22;26906;45.658;9.272;2022-08-03T18:00:02;34.40;82.80
41168;DHT22;26906;45.658;9.272;2022-08-03T18:05:46;34.30;83.30
41168;DHT22;26906;45.658;9.272;2022-08-03T18:08:17;34.30;83.50
41168;DHT22;26906;45.658;9.272;2022-08-03T18:10:43;34.10;83.60
41168;DHT22;26906;45.658;9.272;2022-08-03T18:13:21;34.10;83.10
41168;DHT22;26906;45.658;9.272;2022-08-03T18:16:05;33.90;83.20
41168;DHT22;26906;45.658;9.272;2022-08-03T18:18:43;33.90;83.40
41168;DHT22;26906;45.658;9.272;2022-08-03T18:21:10;33.90;83.40
41168;DHT22;26906;45.658;9.272;2022-08-03T18:23:38;33.90;83.90
41168;DHT22;26906;45.658;9.272;2022-08-03T18:26:09;33.80;83.20
41168;DHT22;26906;45.658;9.272;2022-08-03T18:28:38;33.80;83.30
41168;DHT22;26906;45.658;9.272;2022-08-03T18:31:04;33.90;83.30
41168;DHT22;26906;45.658;9.272;2022-08-03T18:33:34;33.90;83.60
41168;DHT22;26906;45.658;9.272;2022-08-03T18:36:02;33.90;83.40
41168;DHT22;26906;45.658;9.272;2022-08-03T18:38:29;33.90;83.70
41168;DHT22;26906;45.658;9.272;2022-08-03T18:40:56;33.80;82.90
41168;DHT22;26906;45.658;9.272;2022-08-03T18:43:22;33.80;83.30
41168;DHT22;26906;45.658;9.272;2022-08-03T18:45:54;33.60;83.00
41168;DHT22;26906;45.658;9.272;2022-08-03T18:48:33;33.50;83.80
41168;DHT22;26906;45.658;9.272;2022-08-03T18:51:12;33.40;83.10
41168;DHT22;26906;45.658;9.272;2022-08-03T18:54:01;33.30;83.80
41168;DHT22;26906;45.658;9.272;2022-08-03T18:56:45;33.30;84.30
41168;DHT22;26906;45.658;9.272;2022-08-03T19:02:04;33.20;85.00
41168;DHT22;26906;45.658;9.272;2022-08-03T19:04:32;33.10;84.70
41168;DHT22;26906;45.658;9.272;2022-08-03T19:07:02;33.00;84.80
41168;DHT22;26906;45.658;9.272;2022-08-03T19:12:05;32.80;85.60
41168;DHT22;26906;45.658;9.272;2022-08-03T19:14:39;32.70;86.10
41168;DHT22;26906;45.658;9.272;2022-08-03T19:17:09;32.60;86.40
41168;DHT22;26906;45.658;9.272;2022-08-03T19:19:37;32.50;86.20
41168;DHT22;26906;45.658;9.272;2022-08-03T19:22:04;32.40;86.50
41168;DHT22;26906;45.658;9.272;2022-08-03T19:24:33;32.20;86.70
41168;DHT22;26906;45.658;9.272;2022-08-03T19:27:01;32.00;87.30
41168;DHT22;26906;45.658;9.272;2022-08-03T19:29:29;31.90;87.40
41168;DHT22;26906;45.658;9.272;2022-08-03T19:31:57;31.80;87.20
41168;DHT22;26906;45.658;9.272;2022-08-03T19:34:27;31.70;87.40
41168;DHT22;26906;45.658;9.272;2022-08-03T19:36:56;31.70;88.10
41168;DHT22;26906;45.658;9.272;2022-08-03T19:39:22;31.70;88.80
41168;DHT22;26906;45.658;9.272;2022-08-03T19:41:50;31.60;89.30
41168;DHT22;26906;45.658;9.272;2022-08-03T19:44:25;31.60;88.80
41168;DHT22;26906;45.658;9.272;2022-08-03T19:46:59;31.60;89.40
41168;DHT22;26906;45.658;9.272;2022-08-03T19:49:40;31.50;90.00
41168;DHT22;26906;45.658;9.272;2022-08-03T19:52:09;31.40;89.60
41168;DHT22;26906;45.658;9.272;2022-08-03T19:54:43;31.50;89.80
41168;DHT22;26906;45.658;9.272;2022-08-03T19:57:15;31.60;89.90
41168;DHT22;26906;45.658;9.272;2022-08-03T19:59:42;31.50;90.10
41168;DHT22;26906;45.658;9.272;2022-08-03T20:02:08;31.50;90.30
41168;DHT22;26906;45.658;9.272;2022-08-03T20:04:34;31.30;90.40
41168;DHT22;26906;45.658;9.272;2022-08-03T20:07:01;31.20;90.70
41168;DHT22;26906;45.658;9.272;2022-08-03T20:09:29;31.20;90.80
41168;DHT22;26906;45.658;9.272;2022-08-03T20:11:56;31.30;91.10
41168;DHT22;26906;45.658;9.272;2022-08-03T20:14:23;31.20;91.20
41168;DHT22;26906;45.658;9.272;2022-08-03T20:16:50;31.10;91.50
41168;DHT22;26906;45.658;9.272;2022-08-03T20:19:19;30.80;91.60
41168;DHT22;26906;45.658;9.272;2022-08-03T20:21:46;30.70;91.70
41168;DHT22;26906;45.658;9.272;2022-08-03T20:24:15;30.80;91.80
41168;DHT22;26906;45.658;9.272;2022-08-03T20:26:45;30.80;91.80
41168;DHT22;26906;45.658;9.272;2022-08-03T20:29:12;30.90;91.90
41168;DHT22;26906;45.658;9.272;2022-08-03T20:31:41;30.90;92.10
41168;DHT22;26906;45.658;9.272;2022-08-03T20:34:07;30.90;92.10
41168;DHT22;26906;45.658;9.272;2022-08-03T20:36:32;30.80;92.20
41168;DHT22;26906;45.658;9.272;2022-08-03T20:38:58;30.80;92.50
41168;DHT22;26906;45.658;9.272;2022-08-03T20:41:27;30.80;92.60
41168;DHT22;26906;45.658;9.272;2022-08-03T20:43:53;30.80;92.50